createdAt,value
2023-02-22T00:01:33.337Z,21.77
2023-02-22T00:03:59.802Z,21.77
2023-02-22T00:06:26.203Z,27.35
2023-02-22T00:08:53.040Z,25.45
2023-02-22T00:11:20.544Z,26.90
2023-02-22T00:13:47.500Z,28.98
2023-02-22T00:16:19.129Z,27.45
2023-02-22T00:18:46.036Z,29.60
2023-02-22T00:21:14.735Z,33.75
2023-02-22T00:23:46.454Z,30.90
2023-02-22T00:26:18.326Z,35.92
2023-02-22T00:28:51.180Z,38.95
2023-02-22T00:31:18.929Z,37.35
2023-02-22T00:33:45.851Z,38.17
2023-02-22T00:36:13.858Z,42.42
2023-02-22T00:38:41.660Z,44.00
2023-02-22T00:41:09.276Z,41.33
2023-02-22T00:43:36.036Z,51.42
2023-02-22T00:46:02.628Z,49.13
2023-02-22T00:48:29.336Z,48.88
2023-02-22T00:50:55.987Z,50.25
2023-02-22T00:53:25.051Z,52.42
2023-02-22T00:55:52.037Z,41.60
2023-02-22T00:58:18.636Z,49.28
2023-02-22T01:00:45.635Z,50.47
2023-02-22T01:03:14.809Z,54.88
2023-02-22T01:05:41.400Z,49.60
2023-02-22T01:08:10.248Z,58.08
2023-02-22T01:10:38.406Z,50.67
2023-02-22T01:13:08.500Z,51.92
2023-02-22T01:15:36.868Z,48.10
2023-02-22T01:18:05.101Z,56.38
2023-02-22T01:20:32.411Z,47.35
2023-02-22T01:23:00.768Z,52.25
2023-02-22T01:25:29.571Z,55.13
2023-02-22T01:27:57.222Z,58.58
2023-02-22T01:30:27.591Z,50.60
2023-02-22T01:32:54.655Z,51.75
2023-02-22T01:35:27.665Z,52.03
2023-02-22T01:40:26.072Z,47.35
2023-02-22T01:42:57.618Z,48.85
2023-02-22T01:45:38.730Z,48.53
2023-02-22T01:48:09.444Z,49.45
2023-02-22T01:50:40.867Z,45.55
2023-02-22T01:53:09.636Z,54.30
2023-02-22T01:55:36.280Z,49.17
2023-02-22T01:58:05.036Z,50.83
2023-02-22T02:00:32.199Z,51.42
2023-02-22T02:03:04.531Z,46.63
2023-02-22T02:05:34.186Z,51.00
2023-02-22T02:08:09.624Z,51.25
2023-02-22T02:10:37.149Z,54.90
2023-02-22T02:13:03.989Z,48.10
2023-02-22T02:15:33.606Z,49.60
2023-02-22T02:18:03.768Z,48.30
2023-02-22T02:20:50.979Z,47.38
2023-02-22T02:23:30.698Z,39.35
2023-02-22T02:26:21.884Z,46.53
2023-02-22T02:29:09.726Z,46.92
2023-02-22T02:32:01.206Z,46.60
2023-02-22T02:34:30.495Z,45.85
2023-02-22T02:37:12.470Z,43.53
2023-02-22T02:39:56.976Z,42.70
2023-02-22T02:42:29.807Z,46.58
2023-02-22T02:45:13.443Z,47.05
2023-02-22T02:47:48.775Z,42.35
2023-02-22T02:50:30.642Z,53.95
2023-02-22T02:53:01.132Z,47.95
2023-02-22T02:55:30.338Z,43.17
2023-02-22T02:57:56.876Z,50.88
2023-02-22T03:00:28.107Z,47.50
2023-02-22T03:03:00.507Z,48.20
2023-02-22T03:06:19.871Z,53.92
2023-02-22T03:09:04.658Z,43.40
2023-02-22T03:12:07.776Z,45.95
2023-02-22T03:14:53.412Z,54.30
2023-02-22T03:17:32.364Z,46.05
2023-02-22T03:20:04.957Z,40.88
2023-02-22T03:22:37.678Z,42.47
2023-02-22T03:25:10.882Z,39.45
2023-02-22T03:27:46.374Z,44.10
2023-02-22T03:30:24.085Z,51.90
2023-02-22T03:32:56.429Z,45.42
2023-02-22T03:35:28.287Z,51.40
2023-02-22T03:37:58.360Z,50.17
2023-02-22T03:40:33.150Z,49.90
2023-02-22T03:43:06.388Z,49.33
2023-02-22T03:45:34.694Z,49.92
2023-02-22T03:48:17.593Z,44.08
2023-02-22T03:50:44.308Z,48.50
2023-02-22T03:53:11.066Z,48.17
2023-02-22T03:55:37.601Z,55.22
2023-02-22T03:58:08.565Z,50.08
2023-02-22T04:00:35.651Z,52.15
2023-02-22T04:03:02.825Z,47.83
2023-02-22T04:05:29.309Z,43.88
2023-02-22T04:07:57.030Z,44.20
2023-02-22T04:10:24.631Z,41.35
2023-02-22T04:12:51.269Z,48.47
2023-02-22T04:15:21.835Z,45.70
2023-02-22T04:17:48.295Z,46.80
2023-02-22T04:20:19.737Z,45.58
2023-02-22T04:22:47.321Z,46.42
2023-02-22T04:25:14.481Z,46.72
2023-02-22T04:27:40.862Z,47.75
2023-02-22T04:30:07.791Z,47.60
2023-02-22T04:32:34.637Z,45.05
2023-02-22T04:35:01.144Z,43.78
2023-02-22T04:37:27.544Z,41.28
2023-02-22T04:39:54.001Z,44.72
2023-02-22T04:42:20.491Z,45.08
2023-02-22T04:44:46.958Z,73.13
2023-02-22T04:47:13.355Z,46.00
2023-02-22T04:49:39.752Z,44.95
2023-02-22T04:52:06.164Z,48.47
2023-02-22T04:54:32.588Z,40.70
2023-02-22T04:56:59.052Z,44.42
2023-02-22T04:59:25.624Z,43.58
2023-02-22T05:01:52.126Z,41.60
2023-02-22T05:04:18.673Z,54.33
2023-02-22T05:06:45.169Z,57.10
2023-02-22T05:12:58.726Z,102.80
2023-02-22T05:15:25.615Z,84.10
2023-02-22T05:17:53.159Z,46.70
2023-02-22T05:20:32.004Z,103.30
2023-02-22T05:23:00.330Z,60.08
2023-02-22T05:25:28.158Z,64.63
2023-02-22T05:28:00.547Z,50.15
2023-02-22T05:30:32.676Z,50.95
2023-02-22T05:32:59.947Z,139.37
2023-02-22T05:35:28.914Z,59.67
2023-02-22T05:37:56.146Z,84.50
2023-02-22T05:40:25.270Z,74.45
2023-02-22T05:42:52.586Z,110.30
2023-02-22T05:45:20.892Z,98.25
2023-02-22T05:47:48.077Z,62.85
2023-02-22T05:50:15.586Z,167.35
2023-02-22T05:52:42.602Z,129.00
2023-02-22T05:55:10.659Z,93.32
2023-02-22T05:57:37.132Z,146.75
2023-02-22T06:00:08.166Z,156.90
2023-02-22T06:02:34.734Z,117.22
2023-02-22T06:05:01.290Z,152.25
2023-02-22T06:07:27.775Z,67.18
2023-02-22T06:09:54.383Z,75.82
2023-02-22T06:12:20.875Z,71.75
2023-02-22T06:14:47.378Z,73.65
2023-02-22T06:17:15.352Z,84.97
2023-02-22T06:19:41.832Z,81.60
2023-02-22T06:22:08.589Z,99.45
2023-02-22T06:24:38.661Z,84.30
2023-02-22T06:27:05.184Z,126.72
2023-02-22T06:29:31.627Z,90.10
2023-02-22T06:31:58.246Z,64.30
2023-02-22T06:34:24.884Z,75.53
2023-02-22T06:36:51.478Z,91.90
2023-02-22T06:39:18.854Z,74.15
2023-02-22T06:41:47.029Z,61.78
2023-02-22T06:44:15.209Z,49.67
2023-02-22T06:46:48.140Z,52.88
2023-02-22T06:49:14.716Z,58.70
2023-02-22T06:51:41.347Z,79.72
2023-02-22T06:54:07.934Z,107.72
2023-02-22T06:56:34.429Z,88.15
2023-02-22T06:59:02.835Z,80.07
2023-02-22T07:01:29.806Z,97.75
2023-02-22T07:03:56.611Z,97.25
2023-02-22T07:06:23.276Z,171.52
2023-02-22T07:08:49.886Z,74.22
2023-02-22T07:11:18.095Z,80.65
2023-02-22T07:13:46.538Z,96.88
2023-02-22T07:16:13.228Z,77.05
2023-02-22T07:18:39.751Z,91.40
2023-02-22T07:21:06.282Z,103.07
2023-02-22T07:23:32.967Z,61.17
2023-02-22T07:26:03.798Z,80.03
2023-02-22T07:28:30.369Z,97.65
2023-02-22T07:30:56.874Z,45.33
2023-02-22T07:33:23.404Z,72.30
2023-02-22T07:35:50.866Z,72.53
2023-02-22T07:38:19.473Z,61.95
2023-02-22T07:40:46.722Z,92.82
2023-02-22T07:43:16.295Z,76.57
2023-02-22T07:45:43.168Z,46.38
2023-02-22T07:48:10.570Z,61.25
2023-02-22T07:50:37.076Z,28.83
2023-02-22T07:53:06.215Z,56.42
2023-02-22T07:55:34.534Z,45.85
2023-02-22T07:58:04.817Z,60.38
2023-02-22T08:00:34.286Z,36.17
2023-02-22T08:03:02.500Z,37.60
2023-02-22T08:05:30.376Z,50.53
2023-02-22T08:07:56.981Z,50.83
2023-02-22T08:10:24.970Z,48.80
2023-02-22T08:12:52.821Z,39.60
2023-02-22T08:15:24.273Z,54.45
2023-02-22T08:17:51.540Z,29.67
2023-02-22T08:20:18.184Z,47.90
2023-02-22T08:22:45.291Z,64.97
2023-02-22T08:25:13.069Z,43.55
2023-02-22T08:27:39.598Z,25.92
2023-02-22T08:30:07.717Z,27.83
2023-02-22T08:32:35.718Z,27.70
2023-02-22T08:35:02.832Z,23.92
2023-02-22T08:37:29.339Z,28.85
2023-02-22T08:39:56.170Z,25.77
2023-02-22T08:42:22.760Z,26.92
2023-02-22T08:44:49.416Z,30.88
2023-02-22T08:47:15.924Z,27.25
2023-02-22T08:49:42.481Z,30.73
2023-02-22T08:52:09.318Z,26.48
2023-02-22T08:54:35.852Z,26.73
2023-02-22T08:57:02.423Z,29.75
2023-02-22T08:59:29.153Z,26.27
2023-02-22T09:01:55.680Z,29.08
2023-02-22T09:04:22.284Z,26.10
2023-02-22T09:06:51.734Z,26.35
2023-02-22T09:09:21.352Z,27.17
2023-02-22T09:11:48.660Z,28.33
2023-02-22T09:14:16.530Z,26.42
2023-02-22T09:16:45.452Z,27.58
2023-02-22T09:19:12.395Z,24.83
2023-02-22T09:21:40.415Z,26.00
2023-02-22T09:24:10.728Z,26.55
2023-02-22T09:26:39.508Z,27.15
2023-02-22T09:29:12.086Z,25.92
2023-02-22T09:31:40.505Z,25.77
2023-02-22T09:34:17.186Z,26.80
2023-02-22T09:36:46.167Z,26.02
2023-02-22T09:39:15.304Z,27.33
2023-02-22T09:41:44.365Z,24.98
2023-02-22T09:44:19.859Z,27.02
2023-02-22T09:46:48.489Z,28.33
2023-02-22T09:49:25.105Z,25.63
2023-02-22T09:52:16.925Z,27.83
2023-02-22T09:54:51.929Z,25.40
2023-02-22T09:57:28.582Z,25.30
2023-02-22T10:00:14.651Z,27.00
2023-02-22T10:02:54.332Z,28.63
2023-02-22T10:05:29.695Z,24.60
2023-02-22T10:08:05.808Z,30.98
2023-02-22T10:10:37.062Z,28.00
2023-02-22T10:13:22.454Z,28.35
2023-02-22T10:16:20.996Z,26.73
2023-02-22T10:19:11.717Z,27.13
2023-02-22T10:21:47.516Z,27.17
2023-02-22T10:24:38.474Z,31.00
2023-02-22T10:27:19.034Z,29.00
2023-02-22T10:29:59.389Z,30.65
2023-02-22T10:32:35.588Z,29.38
2023-02-22T10:35:05.507Z,28.95
2023-02-22T10:37:34.322Z,28.00
2023-02-22T10:40:17.284Z,27.00
2023-02-22T10:42:44.258Z,25.52
2023-02-22T10:45:34.679Z,29.98
2023-02-22T10:48:08.543Z,30.73
2023-02-22T10:50:38.160Z,29.00
2023-02-22T10:53:04.658Z,31.30
2023-02-22T10:55:31.425Z,29.95
2023-02-22T10:58:04.826Z,26.60
2023-02-22T11:00:37.254Z,29.60
2023-02-22T11:03:17.664Z,25.63
2023-02-22T11:05:44.870Z,27.92
2023-02-22T11:08:29.293Z,33.05
2023-02-22T11:14:42.751Z,27.15
2023-02-22T11:17:14.539Z,27.45
2023-02-22T11:19:47.733Z,24.42
2023-02-22T11:22:22.502Z,26.52
2023-02-22T11:24:57.923Z,24.13
2023-02-22T11:27:38.073Z,24.92
2023-02-22T11:30:18.457Z,27.58
2023-02-22T11:32:47.712Z,22.65
2023-02-22T11:35:50.561Z,24.20
2023-02-22T11:38:24.961Z,23.67
2023-02-22T11:41:16.747Z,24.95
2023-02-22T11:43:45.788Z,25.80
2023-02-22T11:46:30.225Z,22.48
2023-02-22T11:49:10.686Z,24.00
2023-02-22T11:51:49.612Z,24.55
2023-02-22T11:54:32.867Z,23.98
2023-02-22T11:59:55.838Z,22.40
2023-02-22T12:02:37.415Z,23.85
2023-02-22T12:05:08.311Z,23.30
2023-02-22T12:08:19.394Z,24.73
2023-02-22T12:11:03.990Z,22.67
2023-02-22T12:13:42.083Z,21.98
2023-02-22T12:16:17.898Z,23.27
2023-02-22T12:19:03.339Z,21.67
2023-02-22T12:21:32.070Z,17.90
2023-02-22T12:24:14.481Z,19.25
2023-02-22T12:26:44.087Z,19.50
2023-02-22T12:29:37.614Z,19.77
2023-02-22T12:32:14.255Z,19.48
2023-02-22T12:34:45.602Z,18.42
2023-02-22T12:37:29.246Z,18.70
2023-02-22T12:39:55.713Z,18.92
2023-02-22T12:42:55.930Z,17.27
2023-02-22T12:45:37.003Z,17.00
2023-02-22T12:48:40.149Z,15.98
2023-02-22T12:51:21.602Z,17.27
2023-02-22T12:54:06.558Z,18.33
2023-02-22T12:56:49.484Z,16.38
2023-02-22T12:59:27.354Z,18.33
2023-02-22T13:01:59.603Z,14.27
2023-02-22T13:04:26.542Z,16.20
2023-02-22T13:06:57.715Z,15.10
2023-02-22T13:09:48.676Z,14.93
2023-02-22T13:12:36.282Z,16.35
2023-02-22T13:15:17.916Z,15.00
2023-02-22T13:17:52.366Z,14.55
2023-02-22T13:20:29.988Z,16.00
2023-02-22T13:23:38.908Z,16.05
2023-02-22T13:26:30.395Z,13.40
2023-02-22T13:29:10.716Z,17.67
2023-02-22T13:32:12.764Z,16.23
2023-02-22T13:34:59.988Z,16.42
2023-02-22T13:37:58.370Z,16.65
2023-02-22T13:40:44.634Z,15.40
2023-02-22T13:43:42.221Z,17.17
2023-02-22T13:46:22.410Z,16.05
2023-02-22T13:48:57.746Z,14.68
2023-02-22T13:51:51.561Z,15.40
2023-02-22T13:54:24.898Z,18.23
2023-02-22T13:56:53.646Z,16.58
2023-02-22T13:59:36.060Z,15.60
2023-02-22T14:03:09.526Z,14.52
2023-02-22T14:05:42.470Z,15.05
2023-02-22T14:08:38.557Z,14.55
2023-02-22T14:11:33.601Z,18.60
2023-02-22T14:14:02.768Z,16.70
2023-02-22T14:16:34.021Z,15.40
2023-02-22T14:19:09.702Z,17.45
2023-02-22T14:21:36.527Z,17.05
2023-02-22T14:24:12.670Z,15.30
2023-02-22T14:26:40.772Z,16.25
2023-02-22T14:29:07.877Z,17.73
2023-02-22T14:31:43.563Z,16.95
2023-02-22T14:34:22.600Z,16.60
2023-02-22T14:36:50.888Z,13.35
2023-02-22T14:39:39.833Z,15.00
2023-02-22T14:42:14.521Z,17.58
2023-02-22T14:45:03.020Z,14.43
2023-02-22T14:48:01.002Z,13.98
2023-02-22T14:50:41.609Z,15.13
2023-02-22T14:53:22.127Z,17.25
2023-02-22T14:56:06.960Z,14.93
2023-02-22T14:58:56.418Z,14.48
2023-02-22T15:04:28.420Z,13.60
2023-02-22T15:09:34.656Z,15.48
2023-02-22T15:12:04.357Z,15.07
2023-02-22T15:14:37.571Z,16.50
2023-02-22T15:17:27.639Z,16.30
2023-02-22T15:19:55.089Z,18.77
2023-02-22T15:22:27.476Z,15.90
2023-02-22T15:24:58.851Z,12.88
2023-02-22T15:27:26.211Z,16.58
2023-02-22T15:29:59.534Z,15.20
2023-02-22T15:32:32.319Z,13.70
2023-02-22T15:35:25.872Z,16.85
2023-02-22T15:40:33.025Z,11.25
2023-02-22T15:43:08.921Z,13.55
2023-02-22T15:45:42.935Z,15.32
2023-02-22T15:48:14.595Z,13.65
2023-02-22T15:51:09.298Z,17.15
2023-02-22T15:53:41.254Z,15.00
2023-02-22T15:56:17.978Z,15.45
2023-02-22T15:58:46.887Z,13.27
2023-02-22T16:01:22.307Z,16.25
2023-02-22T16:03:53.065Z,19.35
2023-02-22T16:06:36.005Z,16.98
2023-02-22T16:09:25.485Z,15.45
2023-02-22T16:12:09.452Z,15.82
2023-02-22T16:14:35.962Z,14.35
2023-02-22T16:17:25.425Z,15.25
2023-02-22T16:19:53.124Z,15.25
2023-02-22T16:22:39.038Z,17.42
2023-02-22T16:25:17.879Z,15.52
2023-02-22T16:27:50.268Z,17.27
2023-02-22T16:30:24.459Z,18.30
2023-02-22T16:32:54.918Z,16.60
2023-02-22T16:35:27.956Z,16.42
2023-02-22T16:40:38.705Z,15.52
2023-02-22T16:43:12.534Z,15.57
2023-02-22T16:45:41.984Z,14.93
2023-02-22T16:48:16.947Z,17.08
2023-02-22T16:50:43.446Z,15.50
2023-02-22T16:53:10.167Z,16.30
2023-02-22T16:55:36.734Z,17.58
2023-02-22T16:58:04.816Z,14.23
2023-02-22T17:00:31.678Z,18.13
2023-02-22T17:02:59.529Z,18.17
2023-02-22T17:05:26.072Z,15.45
2023-02-22T17:07:52.782Z,16.85
2023-02-22T17:12:58.369Z,16.17
2023-02-22T17:15:35.672Z,16.13
2023-02-22T17:18:11.183Z,16.98
2023-02-22T17:20:37.617Z,19.25
2023-02-22T17:23:09.134Z,16.98
2023-02-22T17:25:44.844Z,15.77
2023-02-22T17:28:12.809Z,16.15
2023-02-22T17:30:39.939Z,17.05
2023-02-22T17:33:09.011Z,17.92
2023-02-22T17:35:38.306Z,20.77
2023-02-22T17:38:06.660Z,17.30
2023-02-22T17:40:35.316Z,17.17
2023-02-22T17:43:02.406Z,18.90
2023-02-22T17:45:29.525Z,16.85
2023-02-22T17:47:59.192Z,15.25
2023-02-22T17:50:27.355Z,18.58
2023-02-22T17:52:54.087Z,20.77
2023-02-22T17:55:22.401Z,18.83
2023-02-22T17:57:58.187Z,19.38
2023-02-22T18:00:34.024Z,16.85
2023-02-22T18:03:02.916Z,16.70
2023-02-22T18:05:35.178Z,16.42
2023-02-22T18:08:01.705Z,17.30
2023-02-22T18:10:28.202Z,17.23
2023-02-22T18:12:56.803Z,17.73
2023-02-22T18:15:23.446Z,22.67
2023-02-22T18:17:50.329Z,20.98
2023-02-22T18:20:30.907Z,19.13
2023-02-22T18:22:59.444Z,24.45
2023-02-22T18:25:27.095Z,22.20
2023-02-22T18:27:55.039Z,18.05
2023-02-22T18:30:21.982Z,19.52
2023-02-22T18:32:49.157Z,19.35
2023-02-22T18:35:15.718Z,21.42
2023-02-22T18:37:42.572Z,15.15
2023-02-22T18:40:10.625Z,18.02
2023-02-22T18:42:39.121Z,20.10
2023-02-22T18:45:07.422Z,19.25
2023-02-22T18:47:44.043Z,17.38
2023-02-22T18:50:11.592Z,19.40
2023-02-22T18:52:44.887Z,19.52
2023-02-22T18:55:13.560Z,19.83
2023-02-22T18:57:40.396Z,19.70
2023-02-22T19:00:09.113Z,19.33
2023-02-22T19:02:35.676Z,19.00
2023-02-22T19:05:03.793Z,17.05
2023-02-22T19:07:30.270Z,18.95
2023-02-22T19:09:56.806Z,18.02
2023-02-22T19:12:24.476Z,17.48
2023-02-22T19:14:53.613Z,17.38
2023-02-22T19:17:21.466Z,17.17
2023-02-22T19:19:48.553Z,15.98
2023-02-22T19:22:15.219Z,23.98
2023-02-22T19:24:45.351Z,17.35
2023-02-22T19:27:13.667Z,20.40
2023-02-22T19:29:40.661Z,21.20
2023-02-22T19:32:08.946Z,19.42
2023-02-22T19:34:37.062Z,18.42
2023-02-22T19:37:05.358Z,19.83
2023-02-22T19:39:33.536Z,18.98
2023-02-22T19:42:00.449Z,23.30
2023-02-22T19:44:28.140Z,20.30
2023-02-22T19:46:57.589Z,19.80
2023-02-22T19:51:54.173Z,19.55
2023-02-22T19:54:22.089Z,19.58
2023-02-22T19:56:51.659Z,21.73
2023-02-22T19:59:22.847Z,20.98
2023-02-22T20:01:52.638Z,23.05
2023-02-22T20:04:21.520Z,26.38
2023-02-22T20:06:54.581Z,21.75
2023-02-22T20:09:24.674Z,21.75
2023-02-22T20:11:53.994Z,20.98
2023-02-22T20:14:23.951Z,27.88
2023-02-22T20:16:51.717Z,22.05
2023-02-22T20:19:18.367Z,21.92
2023-02-22T20:21:45.108Z,23.65
2023-02-22T20:24:15.023Z,22.05
2023-02-22T20:26:42.426Z,24.65
2023-02-22T20:29:10.137Z,21.27
2023-02-22T20:31:38.394Z,24.63
2023-02-22T20:34:09.746Z,23.20
2023-02-22T20:36:38.515Z,24.05
2023-02-22T20:39:13.250Z,26.27
2023-02-22T20:41:42.499Z,24.50
2023-02-22T20:44:13.537Z,25.10
2023-02-22T20:46:40.146Z,24.30
2023-02-22T20:49:08.944Z,26.98
2023-02-22T20:51:35.685Z,26.65
2023-02-22T20:54:03.062Z,28.00
2023-02-22T20:56:31.378Z,27.50
2023-02-22T20:59:00.872Z,27.38
2023-02-22T21:01:28.020Z,28.33
2023-02-22T21:03:54.776Z,27.17
2023-02-22T21:06:22.161Z,28.60
2023-02-22T21:08:54.348Z,30.10
2023-02-22T21:11:22.580Z,30.03
2023-02-22T21:13:49.362Z,29.25
2023-02-22T21:16:22.608Z,35.80
2023-02-22T21:18:54.026Z,30.98
2023-02-22T21:21:21.398Z,32.80
2023-02-22T21:23:50.420Z,31.98
2023-02-22T21:26:19.408Z,33.25
2023-02-22T21:28:51.432Z,31.33
2023-02-22T21:31:20.294Z,30.88
2023-02-22T21:33:53.019Z,30.95
2023-02-22T21:36:20.646Z,33.00
2023-02-22T21:38:53.227Z,33.83
2023-02-22T21:41:21.595Z,33.08
2023-02-22T21:43:51.866Z,31.55
2023-02-22T21:46:19.183Z,31.52
2023-02-22T21:48:48.894Z,35.20
2023-02-22T21:51:21.178Z,31.15
2023-02-22T21:53:51.986Z,23.38
2023-02-22T21:56:23.626Z,36.28
2023-02-22T21:59:02.853Z,41.08
2023-02-22T22:01:34.523Z,32.35
2023-02-22T22:04:02.672Z,35.97
2023-02-22T22:06:30.943Z,35.85
2023-02-22T22:08:59.953Z,37.33
2023-02-22T22:11:26.806Z,36.90
2023-02-22T22:13:57.701Z,35.67
2023-02-22T22:16:27.171Z,34.83
2023-02-22T22:18:55.126Z,34.75
2023-02-22T22:21:23.896Z,37.20
2023-02-22T22:23:54.453Z,36.53
2023-02-22T22:26:24.422Z,39.33
2023-02-22T22:28:54.018Z,37.35
2023-02-22T22:31:23.477Z,38.83
2023-02-22T22:33:50.366Z,38.08
2023-02-22T22:36:19.050Z,39.58
2023-02-22T22:38:48.684Z,37.28
2023-02-22T22:41:17.980Z,38.22
2023-02-22T22:43:46.071Z,41.30
2023-02-22T22:46:14.763Z,42.53
2023-02-22T22:48:41.283Z,44.90
2023-02-22T22:51:14.473Z,41.90
2023-02-22T22:53:44.000Z,40.78
2023-02-22T22:56:19.177Z,40.50
2023-02-22T22:58:51.452Z,39.92
2023-02-22T23:01:26.771Z,40.72
2023-02-22T23:04:01.570Z,45.95
2023-02-22T23:06:34.174Z,40.45
2023-02-22T23:09:13.085Z,44.05
2023-02-22T23:14:20.770Z,44.95
2023-02-22T23:16:53.567Z,49.70
2023-02-22T23:19:20.308Z,42.65
2023-02-22T23:21:48.756Z,43.38
2023-02-22T23:24:18.865Z,42.33
2023-02-22T23:26:48.794Z,42.03
2023-02-22T23:29:21.030Z,48.28
2023-02-22T23:31:49.426Z,42.77
2023-02-22T23:34:23.002Z,42.95
2023-02-22T23:36:54.205Z,48.63
2023-02-22T23:39:22.277Z,44.17
2023-02-22T23:41:53.694Z,44.70
2023-02-22T23:44:21.529Z,44.33
2023-02-22T23:46:49.697Z,41.67
2023-02-22T23:49:20.458Z,45.10
2023-02-22T23:51:47.963Z,42.90
2023-02-22T23:54:16.810Z,46.03
2023-02-22T23:56:47.290Z,45.78
2023-02-22T23:59:14.541Z,48.50
